Time;durP1;ratioP1;P1;durP2;ratioP2;P2;SDS_P1;SDS_P2;PMS_P1;PMS_P2;Temp;Humidity;BMP_temperature;BMP_pressure;BME280_temperature;BME280_humidity;BME280_pressure;Samples;Min_cycle;Max_cycle;Signal;HPM_P1;HPM_P2
2023/01/18 00:01:03;;;;;;;11.53;10.43;;;;;;;;;;5039153;28;20485;-74
2023/01/18 00:03:32;;;;;;;11.77;10.53;;;;;;;;;;5036085;28;20559;-75
2023/01/18 00:06:00;;;;;;;12.50;10.93;;;;;;;;;;5035690;28;20822;-75
2023/01/18 00:08:29;;;;;;;12.83;10.97;;;;;;;;;;5031075;28;20477;-75
2023/01/18 00:11:02;;;;;;;11.57;10.37;;;;;;;;;;5030644;28;20458;-75
2023/01/18 00:13:29;;;;;;;11.87;10.67;;;;;;;;;;5030358;28;20451;-74
2023/01/18 00:16:01;;;;;;;15.80;12.10;;;;;;;;;;5041874;28;21042;-75
2023/01/18 00:18:28;;;;;;;12.87;10.70;;;;;;;;;;5049942;28;20466;-75
2023/01/18 00:20:55;;;;;;;13.33;11.93;;;;;;;;;;5049876;28;20452;-75
2023/01/18 00:23:22;;;;;;;12.57;10.83;;;;;;;;;;5049592;28;20455;-74
2023/01/18 00:25:51;;;;;;;14.63;11.17;;;;;;;;;;5049660;28;20451;-75
2023/01/18 00:28:21;;;;;;;13.03;10.60;;;;;;;;;;5049988;28;20536;-75
2023/01/18 00:30:48;;;;;;;17.53;13.23;;;;;;;;;;5049856;28;20476;-76
2023/01/18 00:33:15;;;;;;;14.47;12.17;;;;;;;;;;5050746;28;20824;-75
2023/01/18 00:35:42;;;;;;;14.20;11.57;;;;;;;;;;5050087;28;20963;-75
2023/01/18 00:38:11;;;;;;;15.73;12.17;;;;;;;;;;5049731;28;20446;-76
2023/01/18 00:40:38;;;;;;;16.60;12.80;;;;;;;;;;5049851;28;20506;-75
2023/01/18 00:45:51;;;;;;;14.23;12.27;;;;;;;;;;5049900;28;20578;-74
2023/01/18 00:48:18;;;;;;;18.20;13.90;;;;;;;;;;5049356;28;20885;-76
2023/01/18 00:50:45;;;;;;;15.77;13.07;;;;;;;;;;5049980;28;20445;-75
2023/01/18 00:53:12;;;;;;;15.40;13.10;;;;;;;;;;5049536;28;20459;-76
2023/01/18 00:55:39;;;;;;;15.53;13.83;;;;;;;;;;5049509;28;20929;-75
2023/01/18 00:58:08;;;;;;;15.87;12.73;;;;;;;;;;5050010;28;20450;-76
2023/01/18 01:00:35;;;;;;;15.60;13.47;;;;;;;;;;5049847;28;20459;-77
2023/01/18 01:03:03;;;;;;;14.97;12.47;;;;;;;;;;5049838;28;20444;-76
2023/01/18 01:08:16;;;;;;;13.80;12.37;;;;;;;;;;5050000;28;20462;-76
2023/01/18 01:10:44;;;;;;;14.17;12.77;;;;;;;;;;5050175;28;20447;-75
2023/01/18 01:26:57;;;;;;;15.20;13.60;;;;;;;;;;5032150;28;20840;-75
2023/01/18 01:29:25;;;;;;;16.23;14.10;;;;;;;;;;5029440;28;20927;-75
2023/01/18 01:31:52;;;;;;;17.17;13.57;;;;;;;;;;5029787;28;20535;-74
2023/01/18 01:34:19;;;;;;;19.97;15.33;;;;;;;;;;5029866;28;21065;-74
2023/01/18 01:36:46;;;;;;;16.30;13.60;;;;;;;;;;5031629;28;20474;-75
2023/01/18 01:39:13;;;;;;;16.73;13.27;;;;;;;;;;5035313;28;20456;-75
2023/01/18 01:41:40;;;;;;;16.33;13.80;;;;;;;;;;5035270;28;20457;-75
2023/01/18 01:44:23;;;;;;;19.13;16.00;;;;;;;;;;5035257;28;20444;-75
2023/01/18 01:46:53;;;;;;;18.67;15.57;;;;;;;;;;5035293;28;20452;-75
2023/01/18 01:49:22;;;;;;;18.13;13.97;;;;;;;;;;5034234;28;20488;-74
2023/01/18 01:51:51;;;;;;;16.43;14.10;;;;;;;;;;5033436;28;20475;-75
2023/01/18 01:54:21;;;;;;;16.53;13.47;;;;;;;;;;5033086;28;20530;-75
2023/01/18 01:56:49;;;;;;;15.37;13.73;;;;;;;;;;5033191;28;20449;-75
2023/01/18 01:59:17;;;;;;;16.30;13.40;;;;;;;;;;5033114;28;20467;-75
2023/01/18 02:01:45;;;;;;;18.30;14.57;;;;;;;;;;5032834;28;20456;-75
2023/01/18 02:04:14;;;;;;;16.67;14.00;;;;;;;;;;5033262;28;20446;-76
2023/01/18 02:06:41;;;;;;;14.93;12.40;;;;;;;;;;5033067;28;20453;-75
2023/01/18 02:09:09;;;;;;;16.23;14.27;;;;;;;;;;5033526;28;20535;-76
2023/01/18 02:11:36;;;;;;;15.83;12.90;;;;;;;;;;5033095;28;20577;-75
2023/01/18 02:14:06;;;;;;;15.67;13.00;;;;;;;;;;5032478;28;20462;-75
2023/01/18 02:16:38;;;;;;;16.53;12.90;;;;;;;;;;5049451;28;20441;-74
2023/01/18 02:19:12;;;;;;;15.63;13.23;;;;;;;;;;5052145;28;20462;-75
2023/01/18 02:21:42;;;;;;;14.67;11.90;;;;;;;;;;5053039;28;20648;-75
2023/01/18 02:24:16;;;;;;;14.67;12.90;;;;;;;;;;5052573;28;20428;-75
2023/01/18 02:26:53;;;;;;;14.70;12.63;;;;;;;;;;5052263;28;20457;-74
2023/01/18 02:29:25;;;;;;;14.27;12.73;;;;;;;;;;5051946;28;20485;-74
2023/01/18 02:31:59;;;;;;;16.27;13.60;;;;;;;;;;5052020;28;20447;-75
2023/01/18 02:34:31;;;;;;;15.40;12.37;;;;;;;;;;5052268;28;20446;-75
2023/01/18 02:37:04;;;;;;;13.10;11.47;;;;;;;;;;5052050;28;20447;-74
2023/01/18 02:39:37;;;;;;;14.30;12.67;;;;;;;;;;5064184;28;20456;-75
2023/01/18 02:47:39;;;;;;;17.80;13.20;;;;;;;;;;5083350;28;20552;-75
2023/01/18 02:50:06;;;;;;;17.30;13.70;;;;;;;;;;5072163;28;20476;-74
2023/01/18 02:52:41;;;;;;;17.90;13.70;;;;;;;;;;5077845;28;20441;-73
2023/01/18 02:55:10;;;;;;;17.60;14.20;;;;;;;;;;5076520;28;20448;-74
2023/01/18 02:57:38;;;;;;;16.37;13.30;;;;;;;;;;5076547;28;20442;-74
2023/01/18 03:00:09;;;;;;;17.50;14.27;;;;;;;;;;5077668;28;20468;-74
2023/01/18 03:02:37;;;;;;;18.40;14.00;;;;;;;;;;5077496;28;20507;-75
2023/01/18 03:05:06;;;;;;;16.00;13.63;;;;;;;;;;5073874;28;20461;-74
2023/01/18 03:07:36;;;;;;;18.10;13.80;;;;;;;;;;5072222;28;20494;-75
2023/01/18 03:10:04;;;;;;;17.80;14.17;;;;;;;;;;5071632;28;20492;-76
2023/01/18 03:12:45;;;;;;;16.90;14.10;;;;;;;;;;5071523;28;20429;-74
2023/01/18 03:15:18;;;;;;;17.30;13.93;;;;;;;;;;5066016;28;20887;-74
2023/01/18 03:17:47;;;;;;;17.00;14.60;;;;;;;;;;5051401;28;20980;-75
2023/01/18 03:20:16;;;;;;;17.23;14.17;;;;;;;;;;5051810;28;20465;-75
2023/01/18 03:25:34;;;;;;;17.00;13.80;;;;;;;;;;5056194;28;20413;-74
2023/01/18 03:33:46;;;;;;;15.60;12.90;;;;;;;;;;5050492;28;20499;-74
2023/01/18 03:36:17;;;;;;;17.97;13.43;;;;;;;;;;5050829;28;20477;-75
2023/01/18 03:38:46;;;;;;;19.57;14.90;;;;;;;;;;5050471;28;20982;-75
2023/01/18 03:41:14;;;;;;;17.20;13.93;;;;;;;;;;5050626;28;20453;-75
2023/01/18 03:43:42;;;;;;;17.00;13.00;;;;;;;;;;5050502;28;20434;-75
2023/01/18 03:46:10;;;;;;;16.70;13.20;;;;;;;;;;5050270;28;20446;-74
2023/01/18 03:48:37;;;;;;;19.40;13.70;;;;;;;;;;5050146;28;20855;-74
2023/01/18 03:51:09;;;;;;;18.60;13.67;;;;;;;;;;5050549;28;20956;-75
2023/01/18 03:53:39;;;;;;;16.87;14.20;;;;;;;;;;5050361;28;20764;-75
2023/01/18 03:56:10;;;;;;;16.63;13.07;;;;;;;;;;5050135;28;20926;-75
2023/01/18 03:58:38;;;;;;;16.70;14.30;;;;;;;;;;5050213;28;20484;-75
2023/01/18 04:01:06;;;;;;;17.03;13.63;;;;;;;;;;5050053;28;20504;-76
2023/01/18 04:03:35;;;;;;;18.37;14.00;;;;;;;;;;5050548;28;20541;-75
2023/01/18 04:06:04;;;;;;;14.90;13.13;;;;;;;;;;5050535;28;20439;-75
2023/01/18 04:08:31;;;;;;;18.03;14.80;;;;;;;;;;5050324;28;20465;-74
2023/01/18 04:10:58;;;;;;;17.30;13.57;;;;;;;;;;5043105;28;20438;-75
2023/01/18 04:13:25;;;;;;;14.93;12.30;;;;;;;;;;5030074;28;20443;-75
2023/01/18 04:15:52;;;;;;;15.93;14.27;;;;;;;;;;5030625;28;20789;-74
2023/01/18 04:18:19;;;;;;;17.70;15.80;;;;;;;;;;5033589;28;20447;-76
2023/01/18 04:20:47;;;;;;;16.10;14.00;;;;;;;;;;5040199;28;20463;-74
2023/01/18 04:23:14;;;;;;;18.00;13.60;;;;;;;;;;5040511;28;20482;-75
2023/01/18 04:25:44;;;;;;;17.70;14.60;;;;;;;;;;5038469;28;20451;-75
2023/01/18 04:28:11;;;;;;;17.20;14.07;;;;;;;;;;5038286;28;20452;-75
2023/01/18 04:30:38;;;;;;;17.33;14.80;;;;;;;;;;5033369;28;20488;-75
2023/01/18 04:33:05;;;;;;;18.13;14.60;;;;;;;;;;5031083;28;20452;-74
2023/01/18 04:35:33;;;;;;;19.40;15.90;;;;;;;;;;5032343;28;20446;-74
2023/01/18 04:38:01;;;;;;;18.27;15.10;;;;;;;;;;5043895;28;20508;-74
2023/01/18 04:40:28;;;;;;;20.27;14.90;;;;;;;;;;5060806;28;20466;-74
2023/01/18 04:42:56;;;;;;;17.47;14.63;;;;;;;;;;5055934;28;20503;-74
2023/01/18 04:45:23;;;;;;;16.27;14.57;;;;;;;;;;5051230;28;20975;-76
2023/01/18 04:47:50;;;;;;;16.37;13.73;;;;;;;;;;5050338;28;20472;-75
2023/01/18 04:50:17;;;;;;;17.87;13.83;;;;;;;;;;5049835;28;20486;-75
2023/01/18 04:52:44;;;;;;;17.80;13.97;;;;;;;;;;5049404;28;20454;-75
2023/01/18 04:55:14;;;;;;;17.27;14.00;;;;;;;;;;5049785;28;20460;-75
2023/01/18 04:57:41;;;;;;;15.40;13.73;;;;;;;;;;5041535;28;20999;-75
2023/01/18 05:00:09;;;;;;;17.03;14.67;;;;;;;;;;5037854;28;20450;-75
2023/01/18 05:02:36;;;;;;;15.13;12.87;;;;;;;;;;5039795;28;20478;-75
2023/01/18 05:05:04;;;;;;;15.23;12.80;;;;;;;;;;5039885;28;20434;-75
2023/01/18 05:07:32;;;;;;;14.40;12.67;;;;;;;;;;5040817;28;20445;-75
2023/01/18 05:09:59;;;;;;;15.70;12.43;;;;;;;;;;5030849;28;20659;-75
2023/01/18 05:12:28;;;;;;;14.53;13.07;;;;;;;;;;5028892;28;20442;-75
2023/01/18 05:14:55;;;;;;;15.73;13.27;;;;;;;;;;5032705;28;20937;-75
2023/01/18 05:17:26;;;;;;;15.13;13.30;;;;;;;;;;5042819;28;20438;-75
2023/01/18 05:19:53;;;;;;;12.17;10.87;;;;;;;;;;5040963;28;20477;-74
2023/01/18 05:22:20;;;;;;;12.43;11.23;;;;;;;;;;5030217;28;20946;-74
2023/01/18 05:24:47;;;;;;;13.07;11.07;;;;;;;;;;5030535;28;20447;-74
2023/01/18 05:27:14;;;;;;;12.50;11.23;;;;;;;;;;5031109;28;20455;-75
2023/01/18 05:29:42;;;;;;;12.87;11.57;;;;;;;;;;5030612;28;20832;-76
2023/01/18 05:32:10;;;;;;;13.53;11.90;;;;;;;;;;5029874;28;20966;-74
2023/01/18 05:34:37;;;;;;;10.17;9.17;;;;;;;;;;5029633;28;20451;-75
2023/01/18 05:37:04;;;;;;;10.83;9.80;;;;;;;;;;5035034;28;20446;-75
2023/01/18 05:39:31;;;;;;;10.90;9.57;;;;;;;;;;5038781;28;20467;-75
2023/01/18 05:41:58;;;;;;;9.73;8.87;;;;;;;;;;5033636;28;20478;-76
2023/01/18 05:44:25;;;;;;;9.60;8.70;;;;;;;;;;5031920;28;20447;-74
2023/01/18 05:46:54;;;;;;;9.50;8.67;;;;;;;;;;5035371;28;20482;-74
2023/01/18 05:49:21;;;;;;;9.83;8.90;;;;;;;;;;5043844;28;20463;-74
2023/01/18 05:51:48;;;;;;;9.30;8.13;;;;;;;;;;5066537;28;20449;-74
2023/01/18 05:54:15;;;;;;;11.20;10.07;;;;;;;;;;5065850;28;20944;-75
2023/01/18 05:56:42;;;;;;;8.93;8.13;;;;;;;;;;5062435;28;20446;-75
2023/01/18 05:59:09;;;;;;;11.80;8.60;;;;;;;;;;5063488;28;20462;-75
2023/01/18 06:01:36;;;;;;;9.50;8.60;;;;;;;;;;5066079;28;20443;-75
2023/01/18 06:04:05;;;;;;;9.43;8.27;;;;;;;;;;5064241;28;20445;-75
2023/01/18 06:06:32;;;;;;;9.27;8.47;;;;;;;;;;5056375;28;20452;-75
2023/01/18 06:09:00;;;;;;;9.23;8.40;;;;;;;;;;5052494;28;20469;-74
2023/01/18 06:11:27;;;;;;;8.90;8.10;;;;;;;;;;5066118;28;20473;-74
2023/01/18 06:13:54;;;;;;;9.30;8.50;;;;;;;;;;5068773;28;20432;-75
2023/01/18 06:16:21;;;;;;;9.37;8.47;;;;;;;;;;5052159;28;20518;-75
2023/01/18 06:18:48;;;;;;;9.27;8.40;;;;;;;;;;5048099;28;20462;-74
2023/01/18 06:21:16;;;;;;;9.10;8.20;;;;;;;;;;5049535;28;20439;-74
2023/01/18 06:23:43;;;;;;;8.70;7.90;;;;;;;;;;5051726;28;20427;-74
2023/01/18 06:26:10;;;;;;;8.80;8.00;;;;;;;;;;5051322;28;20447;-74
2023/01/18 06:28:37;;;;;;;10.23;9.23;;;;;;;;;;5035712;28;20826;-75
2023/01/18 06:31:07;;;;;;;10.80;8.97;;;;;;;;;;5037173;28;20731;-74
2023/01/18 06:33:34;;;;;;;8.97;8.17;;;;;;;;;;5034527;28;20883;-75
2023/01/18 06:36:01;;;;;;;9.47;8.57;;;;;;;;;;5035068;28;20447;-76
2023/01/18 06:38:30;;;;;;;9.77;8.77;;;;;;;;;;5036668;28;20462;-75
2023/01/18 06:40:57;;;;;;;9.33;8.43;;;;;;;;;;5037293;28;20476;-74
2023/01/18 06:43:24;;;;;;;9.00;8.10;;;;;;;;;;5035791;28;20457;-75
2023/01/18 06:45:54;;;;;;;9.90;8.90;;;;;;;;;;5032070;28;20506;-75
2023/01/18 06:48:22;;;;;;;8.50;7.70;;;;;;;;;;5032353;28;20454;-75
2023/01/18 06:50:51;;;;;;;9.90;8.93;;;;;;;;;;5031354;28;21063;-75
2023/01/18 06:53:18;;;;;;;11.37;8.87;;;;;;;;;;5031387;28;20980;-76
2023/01/18 06:55:53;;;;;;;10.67;9.67;;;;;;;;;;5032003;28;20470;-75
2023/01/18 06:58:20;;;;;;;12.90;10.13;;;;;;;;;;5031175;28;20533;-75
2023/01/18 07:00:47;;;;;;;12.47;10.07;;;;;;;;;;5031829;28;20445;-76
2023/01/18 07:03:14;;;;;;;11.40;10.30;;;;;;;;;;5031407;28;20813;-76
2023/01/18 07:05:42;;;;;;;11.40;9.73;;;;;;;;;;5032177;28;20458;-76
2023/01/18 07:08:09;;;;;;;13.63;11.47;;;;;;;;;;5031823;28;20457;-75
2023/01/18 07:10:36;;;;;;;13.17;11.87;;;;;;;;;;5031195;28;20487;-76
2023/01/18 07:13:05;;;;;;;13.70;11.73;;;;;;;;;;5031149;28;20462;-75
2023/01/18 07:15:32;;;;;;;13.10;11.70;;;;;;;;;;5041526;28;20969;-76
2023/01/18 07:17:59;;;;;;;13.93;11.90;;;;;;;;;;5053216;28;20441;-75
2023/01/18 07:20:26;;;;;;;14.53;12.40;;;;;;;;;;5053561;28;20485;-75
2023/01/18 07:22:53;;;;;;;12.60;11.33;;;;;;;;;;5050971;28;20453;-76
2023/01/18 07:25:20;;;;;;;12.60;11.37;;;;;;;;;;5050646;28;20453;-76
2023/01/18 07:27:48;;;;;;;12.70;11.20;;;;;;;;;;5051212;28;20458;-76
2023/01/18 07:30:17;;;;;;;13.80;11.00;;;;;;;;;;5051369;28;20607;-75
2023/01/18 07:32:48;;;;;;;14.20;11.43;;;;;;;;;;5052012;28;20441;-75
2023/01/18 07:35:16;;;;;;;11.60;10.40;;;;;;;;;;5051648;28;20476;-75
2023/01/18 07:37:43;;;;;;;11.63;10.27;;;;;;;;;;5056257;28;20453;-75
2023/01/18 07:40:10;;;;;;;13.27;11.63;;;;;;;;;;5054243;28;20549;-76
2023/01/18 07:42:37;;;;;;;10.63;9.63;;;;;;;;;;5052756;28;20449;-76
2023/01/18 07:45:07;;;;;;;13.13;11.53;;;;;;;;;;5051068;28;21091;-75
2023/01/18 07:47:38;;;;;;;14.37;10.47;;;;;;;;;;5050285;28;20485;-76
2023/01/18 07:50:05;;;;;;;12.90;11.63;;;;;;;;;;5050096;28;20584;-75
2023/01/18 07:52:32;;;;;;;14.23;12.40;;;;;;;;;;5050123;28;20451;-76
2023/01/18 07:54:59;;;;;;;13.67;12.37;;;;;;;;;;5050898;28;20689;-75
2023/01/18 07:57:26;;;;;;;13.60;12.20;;;;;;;;;;5051646;28;20764;-75
2023/01/18 07:59:53;;;;;;;15.17;13.57;;;;;;;;;;5062174;28;20465;-75
2023/01/18 08:02:20;;;;;;;14.90;13.23;;;;;;;;;;5053129;28;20521;-76
2023/01/18 08:04:49;;;;;;;13.80;12.30;;;;;;;;;;5050523;28;20515;-75
2023/01/18 08:07:17;;;;;;;13.70;12.30;;;;;;;;;;5051276;28;20449;-76
2023/01/18 08:09:44;;;;;;;16.10;14.40;;;;;;;;;;5050255;28;20462;-75
2023/01/18 08:12:12;;;;;;;14.30;12.87;;;;;;;;;;5050768;28;20437;-75
2023/01/18 08:14:40;;;;;;;13.90;12.60;;;;;;;;;;5048617;28;20452;-76
2023/01/18 08:17:07;;;;;;;11.87;10.63;;;;;;;;;;5035459;28;20900;-75
2023/01/18 08:19:35;;;;;;;14.37;12.80;;;;;;;;;;5049128;28;20875;-76
2023/01/18 08:22:03;;;;;;;15.87;13.30;;;;;;;;;;5050564;28;20810;-76
2023/01/18 08:24:30;;;;;;;14.30;12.93;;;;;;;;;;5050904;28;20437;-75
2023/01/18 08:26:57;;;;;;;15.20;13.53;;;;;;;;;;5049934;28;20450;-75
2023/01/18 08:29:24;;;;;;;15.83;13.47;;;;;;;;;;5050165;28;20826;-76
2023/01/18 08:31:52;;;;;;;20.73;12.43;;;;;;;;;;5050031;28;20477;-75
2023/01/18 08:34:20;;;;;;;14.50;12.60;;;;;;;;;;5049862;28;20449;-74
2023/01/18 08:36:49;;;;;;;14.73;11.43;;;;;;;;;;5050037;28;20456;-75
2023/01/18 08:39:18;;;;;;;16.53;12.30;;;;;;;;;;5049954;28;20470;-75
2023/01/18 08:41:46;;;;;;;13.33;11.90;;;;;;;;;;5049663;28;20446;-75
2023/01/18 08:44:13;;;;;;;12.90;11.13;;;;;;;;;;5049318;28;20524;-75
2023/01/18 08:46:40;;;;;;;16.43;11.90;;;;;;;;;;5050106;28;20453;-74
2023/01/18 08:49:07;;;;;;;12.57;11.23;;;;;;;;;;5049560;28;20856;-74
2023/01/18 08:51:34;;;;;;;12.00;10.10;;;;;;;;;;5049785;28;20483;-75
2023/01/18 08:54:01;;;;;;;11.53;10.43;;;;;;;;;;5049453;28;20454;-75
2023/01/18 08:56:29;;;;;;;12.80;11.63;;;;;;;;;;5049741;28;20461;-74
2023/01/18 08:58:57;;;;;;;12.03;10.83;;;;;;;;;;5049072;28;21007;-75
2023/01/18 09:01:24;;;;;;;12.33;10.97;;;;;;;;;;5049469;28;20441;-75
2023/01/18 09:03:54;;;;;;;12.87;10.23;;;;;;;;;;5049115;28;20514;-74
2023/01/18 09:06:21;;;;;;;11.93;10.83;;;;;;;;;;5049192;28;20457;-74
2023/01/18 09:08:48;;;;;;;12.80;11.43;;;;;;;;;;5048826;28;20476;-75
2023/01/18 09:11:16;;;;;;;16.63;11.20;;;;;;;;;;5048826;28;20474;-76
2023/01/18 09:13:45;;;;;;;12.77;10.70;;;;;;;;;;5048975;28;20450;-74
2023/01/18 09:16:13;;;;;;;11.00;9.87;;;;;;;;;;5049067;28;20451;-75
2023/01/18 09:18:40;;;;;;;12.10;10.80;;;;;;;;;;5049127;28;20474;-76
2023/01/18 09:21:07;;;;;;;12.63;11.33;;;;;;;;;;5049082;28;20450;-75
2023/01/18 09:23:35;;;;;;;14.10;10.57;;;;;;;;;;5049362;28;20454;-75
2023/01/18 09:26:02;;;;;;;12.13;11.03;;;;;;;;;;5048892;28;20457;-75
2023/01/18 09:28:29;;;;;;;12.50;10.90;;;;;;;;;;5049491;28;20480;-76
2023/01/18 09:31:01;;;;;;;11.17;9.97;;;;;;;;;;5048980;28;20866;-75
2023/01/18 09:33:28;;;;;;;15.23;10.13;;;;;;;;;;5049512;28;20446;-75
2023/01/18 09:35:56;;;;;;;16.27;10.10;;;;;;;;;;5049431;28;20484;-74
2023/01/18 09:38:23;;;;;;;11.63;10.47;;;;;;;;;;5051046;28;20445;-75
2023/01/18 09:40:52;;;;;;;11.60;10.40;;;;;;;;;;5051620;28;20443;-75
2023/01/18 09:43:22;;;;;;;11.53;9.80;;;;;;;;;;5048980;28;20450;-75
2023/01/18 09:45:49;;;;;;;11.67;9.90;;;;;;;;;;5049316;28;20530;-75
2023/01/18 09:48:27;;;;;;;11.40;10.20;;;;;;;;;;5049460;28;20791;-74
2023/01/18 09:50:55;;;;;;;11.17;10.17;;;;;;;;;;5048966;28;20810;-74
2023/01/18 09:53:29;;;;;;;11.90;10.17;;;;;;;;;;5049368;28;20956;-75
2023/01/18 09:55:59;;;;;;;12.93;10.07;;;;;;;;;;5062844;28;20446;-76
2023/01/18 09:58:32;;;;;;;12.07;10.80;;;;;;;;;;5051510;28;20473;-76
2023/01/18 10:01:02;;;;;;;11.83;10.60;;;;;;;;;;5052945;28;20450;-75
2023/01/18 10:03:34;;;;;;;13.17;10.67;;;;;;;;;;5052549;28;20457;-75
2023/01/18 10:06:08;;;;;;;11.60;10.47;;;;;;;;;;5059638;28;20604;-75
2023/01/18 10:08:37;;;;;;;10.83;9.73;;;;;;;;;;5060135;28;20453;-75
2023/01/18 10:11:07;;;;;;;10.70;8.90;;;;;;;;;;5056147;28;20469;-76
2023/01/18 10:13:37;;;;;;;9.10;8.20;;;;;;;;;;5055295;28;20523;-75
2023/01/18 10:16:05;;;;;;;8.70;7.90;;;;;;;;;;5040226;28;20585;-75
2023/01/18 10:18:38;;;;;;;9.80;8.80;;;;;;;;;;5033015;28;20470;-74
2023/01/18 10:21:06;;;;;;;9.83;8.93;;;;;;;;;;5032280;28;20443;-75
2023/01/18 10:23:35;;;;;;;9.27;8.30;;;;;;;;;;5031982;28;20451;-75
2023/01/18 10:26:03;;;;;;;10.43;8.73;;;;;;;;;;5032467;28;20453;-74
2023/01/18 10:28:35;;;;;;;11.07;9.27;;;;;;;;;;5033625;28;20910;-76
2023/01/18 10:31:07;;;;;;;10.70;9.30;;;;;;;;;;5032842;28;20884;-75
2023/01/18 10:33:39;;;;;;;11.20;10.13;;;;;;;;;;5033353;28;20442;-75
2023/01/18 10:36:08;;;;;;;12.97;9.93;;;;;;;;;;5033612;28;20522;-75
2023/01/18 10:38:37;;;;;;;11.77;10.20;;;;;;;;;;5032013;28;20460;-75
2023/01/18 10:41:04;;;;;;;11.93;10.43;;;;;;;;;;5031656;28;20543;-75
2023/01/18 10:43:32;;;;;;;14.10;10.03;;;;;;;;;;5031925;28;20450;-74
2023/01/18 10:45:59;;;;;;;12.17;10.87;;;;;;;;;;5032175;28;20460;-75
2023/01/18 10:48:28;;;;;;;11.23;10.07;;;;;;;;;;5031850;28;20542;-75
2023/01/18 10:50:58;;;;;;;11.23;10.03;;;;;;;;;;5032132;28;20795;-75
2023/01/18 10:53:28;;;;;;;10.90;9.50;;;;;;;;;;5031494;28;20909;-74
2023/01/18 10:55:58;;;;;;;11.97;9.57;;;;;;;;;;5031797;28;20443;-75
2023/01/18 10:58:26;;;;;;;11.20;10.20;;;;;;;;;;5032201;28;20439;-76
2023/01/18 11:00:54;;;;;;;12.70;10.13;;;;;;;;;;5032294;28;20452;-76
2023/01/18 11:03:22;;;;;;;10.93;9.43;;;;;;;;;;5032101;28;20443;-76
2023/01/18 11:05:49;;;;;;;9.37;8.47;;;;;;;;;;5032514;28;20512;-75
2023/01/18 11:08:24;;;;;;;11.37;9.13;;;;;;;;;;5033521;28;20938;-74
2023/01/18 11:11:01;;;;;;;9.30;8.40;;;;;;;;;;5033805;28;20526;-75
2023/01/18 11:13:30;;;;;;;10.70;8.87;;;;;;;;;;5032182;28;20450;-75
2023/01/18 11:16:04;;;;;;;9.40;8.40;;;;;;;;;;5033072;28;20452;-76
2023/01/18 11:18:31;;;;;;;9.50;8.17;;;;;;;;;;5035179;28;20497;-75
2023/01/18 11:20:58;;;;;;;10.73;8.40;;;;;;;;;;5037202;28;20861;-76
2023/01/18 11:23:31;;;;;;;10.00;8.83;;;;;;;;;;5032381;28;20455;-75
2023/01/18 11:26:00;;;;;;;13.20;9.00;;;;;;;;;;5031658;28;20449;-75
2023/01/18 11:28:29;;;;;;;16.37;8.73;;;;;;;;;;5030795;28;20479;-75
2023/01/18 11:30:57;;;;;;;11.13;9.70;;;;;;;;;;5030875;28;20956;-75
2023/01/18 11:33:26;;;;;;;9.20;8.30;;;;;;;;;;5031023;28;20453;-75
2023/01/18 11:35:54;;;;;;;9.03;7.90;;;;;;;;;;5031041;28;20449;-75
2023/01/18 11:38:21;;;;;;;9.70;8.70;;;;;;;;;;5030553;28;20451;-75
2023/01/18 11:41:01;;;;;;;11.23;9.70;;;;;;;;;;5030976;28;20956;-75
2023/01/18 11:43:29;;;;;;;11.93;9.40;;;;;;;;;;5030250;28;20449;-74
2023/01/18 11:45:59;;;;;;;10.53;9.10;;;;;;;;;;5031362;28;20448;-76
2023/01/18 11:48:29;;;;;;;11.73;9.20;;;;;;;;;;5032109;28;20486;-75
2023/01/18 11:51:00;;;;;;;8.90;8.00;;;;;;;;;;5032036;28;20441;-75
2023/01/18 11:53:33;;;;;;;11.60;8.57;;;;;;;;;;5034325;28;20928;-75
2023/01/18 11:56:05;;;;;;;11.70;8.07;;;;;;;;;;5031921;28;20449;-75
2023/01/18 11:58:33;;;;;;;9.00;8.10;;;;;;;;;;5031079;28;20481;-75
2023/01/18 12:01:05;;;;;;;12.80;7.73;;;;;;;;;;5031040;28;20457;-74
2023/01/18 12:03:39;;;;;;;9.53;7.00;;;;;;;;;;5030308;28;20518;-76
2023/01/18 12:06:10;;;;;;;8.80;7.90;;;;;;;;;;5070256;28;20470;-76
2023/01/18 12:08:45;;;;;;;7.80;7.10;;;;;;;;;;5069711;28;20947;-75
2023/01/18 12:11:22;;;;;;;9.37;7.17;;;;;;;;;;5070696;28;20451;-75
2023/01/18 12:13:58;;;;;;;9.10;7.33;;;;;;;;;;5070209;28;20816;-76
2023/01/18 12:16:28;;;;;;;7.93;7.23;;;;;;;;;;5054556;28;20553;-76
2023/01/18 12:19:06;;;;;;;11.07;6.57;;;;;;;;;;5049925;28;20477;-76
2023/01/18 12:21:38;;;;;;;8.90;6.90;;;;;;;;;;5050173;28;20821;-76
2023/01/18 12:24:12;;;;;;;7.33;6.73;;;;;;;;;;5049702;28;20449;-75
2023/01/18 12:26:46;;;;;;;10.33;7.40;;;;;;;;;;5050106;28;20432;-76
2023/01/18 12:29:22;;;;;;;9.33;7.03;;;;;;;;;;5050087;28;20495;-75
2023/01/18 12:31:56;;;;;;;8.27;7.47;;;;;;;;;;5049916;28;20484;-75
2023/01/18 12:34:24;;;;;;;9.20;7.07;;;;;;;;;;5050821;28;20453;-74
2023/01/18 12:36:58;;;;;;;10.47;8.03;;;;;;;;;;5049811;28;20449;-74
2023/01/18 12:39:33;;;;;;;12.40;7.30;;;;;;;;;;5054237;28;20472;-75
2023/01/18 12:42:04;;;;;;;10.60;7.10;;;;;;;;;;5051246;28;20452;-75
2023/01/18 12:44:55;;;;;;;10.63;8.00;;;;;;;;;;5049579;28;20468;-75
2023/01/18 12:47:41;;;;;;;7.70;6.90;;;;;;;;;;5035480;28;20460;-75
2023/01/18 12:50:14;;;;;;;9.20;7.33;;;;;;;;;;5051054;28;21045;-75
2023/01/18 12:52:45;;;;;;;10.03;6.93;;;;;;;;;;5052064;28;20486;-75
2023/01/18 12:55:16;;;;;;;7.47;6.37;;;;;;;;;;5051815;28;20453;-76
2023/01/18 12:57:45;;;;;;;9.80;6.40;;;;;;;;;;5052208;28;20922;-75
2023/01/18 13:00:16;;;;;;;10.30;7.00;;;;;;;;;;5056195;28;21003;-75
2023/01/18 13:02:46;;;;;;;8.00;7.20;;;;;;;;;;5051337;28;20446;-74
2023/01/18 13:05:17;;;;;;;7.00;6.30;;;;;;;;;;5053414;28;20456;-75
2023/01/18 13:07:46;;;;;;;7.57;6.87;;;;;;;;;;5063806;28;20548;-76
2023/01/18 13:10:17;;;;;;;8.93;5.50;;;;;;;;;;5057284;28;20466;-76
2023/01/18 13:12:46;;;;;;;9.90;6.30;;;;;;;;;;5050182;28;20640;-75
2023/01/18 13:15:19;;;;;;;11.73;7.50;;;;;;;;;;5053102;28;20452;-74
2023/01/18 13:17:49;;;;;;;11.50;6.53;;;;;;;;;;5050522;28;20454;-74
2023/01/18 13:20:18;;;;;;;10.33;9.17;;;;;;;;;;5054193;28;20469;-75
2023/01/18 13:22:48;;;;;;;7.50;6.67;;;;;;;;;;5057020;28;20455;-76
2023/01/18 13:25:26;;;;;;;8.17;7.10;;;;;;;;;;5062217;28;20443;-75
2023/01/18 13:27:59;;;;;;;7.63;6.60;;;;;;;;;;5056759;28;20459;-74
2023/01/18 13:30:26;;;;;;;7.83;7.07;;;;;;;;;;5052254;28;20465;-75
2023/01/18 13:32:53;;;;;;;11.60;6.83;;;;;;;;;;5052248;28;20486;-74
2023/01/18 13:35:22;;;;;;;7.63;6.60;;;;;;;;;;5053501;28;20970;-75
2023/01/18 13:37:50;;;;;;;6.30;5.70;;;;;;;;;;5053286;28;20447;-75
2023/01/18 13:40:22;;;;;;;7.07;5.90;;;;;;;;;;5054148;28;20471;-75
2023/01/18 13:42:49;;;;;;;6.43;5.83;;;;;;;;;;5073424;28;20472;-75
2023/01/18 13:45:19;;;;;;;8.73;6.60;;;;;;;;;;5073285;28;20477;-74
2023/01/18 13:47:50;;;;;;;9.97;6.80;;;;;;;;;;5073958;28;20921;-75
2023/01/18 13:50:39;;;;;;;7.13;6.43;;;;;;;;;;5073315;28;20471;-75
2023/01/18 13:53:16;;;;;;;7.83;5.87;;;;;;;;;;5072817;28;20486;-75
2023/01/18 13:55:47;;;;;;;6.77;5.93;;;;;;;;;;5073352;28;20443;-75
2023/01/18 13:58:18;;;;;;;8.00;6.93;;;;;;;;;;5073234;28;20485;-75
2023/01/18 14:00:48;;;;;;;8.23;6.17;;;;;;;;;;5073059;28;20941;-75
2023/01/18 14:03:17;;;;;;;6.83;6.13;;;;;;;;;;5072046;28;20469;-74
2023/01/18 14:05:45;;;;;;;9.47;6.50;;;;;;;;;;5073041;28;20464;-75
2023/01/18 14:08:19;;;;;;;12.13;6.53;;;;;;;;;;5072658;28;20450;-76
2023/01/18 14:10:48;;;;;;;7.13;6.43;;;;;;;;;;5072710;28;20828;-74
2023/01/18 14:13:16;;;;;;;6.90;6.13;;;;;;;;;;5072191;28;21087;-75
2023/01/18 14:15:50;;;;;;;7.23;6.60;;;;;;;;;;5062115;28;20513;-75
2023/01/18 14:18:20;;;;;;;7.10;6.40;;;;;;;;;;5052692;28;20441;-75
2023/01/18 14:20:50;;;;;;;7.50;6.50;;;;;;;;;;5052714;28;20440;-74
2023/01/18 14:23:26;;;;;;;7.03;6.00;;;;;;;;;;5052286;28;20490;-74
2023/01/18 14:25:59;;;;;;;6.80;6.13;;;;;;;;;;5053469;28;20553;-75
2023/01/18 14:28:28;;;;;;;6.87;6.13;;;;;;;;;;5057268;28;20467;-75
2023/01/18 14:30:58;;;;;;;7.80;5.90;;;;;;;;;;5053757;28;20463;-75
2023/01/18 14:33:27;;;;;;;6.37;5.83;;;;;;;;;;5052485;28;20507;-75
2023/01/18 14:35:56;;;;;;;7.20;6.50;;;;;;;;;;5053322;28;20456;-76
2023/01/18 14:38:24;;;;;;;6.63;5.97;;;;;;;;;;5052721;28;20448;-76
2023/01/18 14:40:52;;;;;;;6.57;5.77;;;;;;;;;;5052488;28;20944;-75
2023/01/18 14:43:24;;;;;;;7.50;6.67;;;;;;;;;;5051682;28;20444;-76
2023/01/18 14:45:54;;;;;;;7.30;6.60;;;;;;;;;;5052244;28;20476;-77
2023/01/18 14:48:25;;;;;;;7.63;6.93;;;;;;;;;;5053456;28;20451;-75
2023/01/18 14:50:53;;;;;;;9.13;6.60;;;;;;;;;;5052188;28;20540;-76
2023/01/18 14:53:21;;;;;;;7.00;6.13;;;;;;;;;;5051778;28;20472;-76
2023/01/18 14:56:02;;;;;;;10.20;6.07;;;;;;;;;;5051729;28;20451;-75
2023/01/18 14:58:29;;;;;;;14.23;7.30;;;;;;;;;;5051777;28;20474;-76
2023/01/18 15:00:56;;;;;;;9.97;6.30;;;;;;;;;;5051789;28;20440;-76
2023/01/18 15:03:26;;;;;;;24.20;16.33;;;;;;;;;;5051232;28;21003;-76
2023/01/18 15:05:58;;;;;;;9.47;7.50;;;;;;;;;;5051433;28;20470;-76
2023/01/18 15:08:26;;;;;;;7.30;6.53;;;;;;;;;;5051809;28;20447;-76
2023/01/18 15:10:53;;;;;;;8.80;6.87;;;;;;;;;;5054466;28;20447;-75